sensor_id;sensor_type;location;lat;lon;timestamp;P1;durP1;ratioP1;P2;durP2;ratioP2
16845;SDS011;8539;53.188;8.696;2022-09-09T00:00:49;12.10;;;10.63;;
16845;SDS011;8539;53.188;8.696;2022-09-09T00:03:31;16.83;;;12.88;;
16845;SDS011;8539;53.188;8.696;2022-09-09T00:06:10;15.68;;;10.82;;
16845;SDS011;8539;53.188;8.696;2022-09-09T00:08:58;16.35;;;11.25;;
16845;SDS011;8539;53.188;8.696;2022-09-09T00:11:46;10.50;;;8.80;;
16845;SDS011;8539;53.188;8.696;2022-09-09T00:23:02;13.90;;;11.65;;
16845;SDS011;8539;53.188;8.696;2022-09-09T00:25:43;15.07;;;11.73;;
16845;SDS011;8539;53.188;8.696;2022-09-09T00:28:19;18.92;;;14.48;;
16845;SDS011;8539;53.188;8.696;2022-09-09T00:30:48;25.30;;;16.60;;
16845;SDS011;8539;53.188;8.696;2022-09-09T00:33:15;25.65;;;17.02;;
16845;SDS011;8539;53.188;8.696;2022-09-09T00:35:47;23.13;;;16.45;;
16845;SDS011;8539;53.188;8.696;2022-09-09T00:38:18;18.65;;;14.57;;
16845;SDS011;8539;53.188;8.696;2022-09-09T00:43:31;16.13;;;11.73;;
16845;SDS011;8539;53.188;8.696;2022-09-09T00:46:05;19.48;;;14.00;;
16845;SDS011;8539;53.188;8.696;2022-09-09T01:05:59;13.63;;;11.82;;
16845;SDS011;8539;53.188;8.696;2022-09-09T01:08:38;17.45;;;12.77;;
16845;SDS011;8539;53.188;8.696;2022-09-09T01:11:22;19.40;;;13.27;;
16845;SDS011;8539;53.188;8.696;2022-09-09T01:16:21;19.92;;;15.65;;
16845;SDS011;8539;53.188;8.696;2022-09-09T01:18:48;21.70;;;14.75;;
16845;SDS011;8539;53.188;8.696;2022-09-09T01:27:16;22.50;;;15.85;;
16845;SDS011;8539;53.188;8.696;2022-09-09T01:29:45;24.48;;;15.23;;
16845;SDS011;8539;53.188;8.696;2022-09-09T01:35:10;22.27;;;14.90;;
16845;SDS011;8539;53.188;8.696;2022-09-09T01:37:47;23.23;;;14.98;;
16845;SDS011;8539;53.188;8.696;2022-09-09T01:40:13;19.65;;;14.05;;
16845;SDS011;8539;53.188;8.696;2022-09-09T01:42:39;20.55;;;14.20;;
16845;SDS011;8539;53.188;8.696;2022-09-09T01:45:06;20.80;;;15.13;;
16845;SDS011;8539;53.188;8.696;2022-09-09T01:47:32;25.23;;;16.05;;
16845;SDS011;8539;53.188;8.696;2022-09-09T01:49:59;22.50;;;15.75;;
16845;SDS011;8539;53.188;8.696;2022-09-09T01:52:28;20.00;;;14.75;;
16845;SDS011;8539;53.188;8.696;2022-09-09T02:00:50;25.85;;;15.38;;
16845;SDS011;8539;53.188;8.696;2022-09-09T02:03:32;20.30;;;13.23;;
16845;SDS011;8539;53.188;8.696;2022-09-09T02:08:56;22.88;;;11.70;;
16845;SDS011;8539;53.188;8.696;2022-09-09T02:11:26;22.83;;;15.95;;
16845;SDS011;8539;53.188;8.696;2022-09-09T02:14:01;29.83;;;15.38;;
16845;SDS011;8539;53.188;8.696;2022-09-09T02:16:41;25.50;;;14.50;;
16845;SDS011;8539;53.188;8.696;2022-09-09T02:19:26;26.90;;;16.63;;
16845;SDS011;8539;53.188;8.696;2022-09-09T02:22:06;24.83;;;16.13;;
16845;SDS011;8539;53.188;8.696;2022-09-09T02:24:36;21.85;;;16.08;;
16845;SDS011;8539;53.188;8.696;2022-09-09T02:27:04;29.42;;;16.15;;
16845;SDS011;8539;53.188;8.696;2022-09-09T02:29:35;21.25;;;14.38;;
16845;SDS011;8539;53.188;8.696;2022-09-09T02:32:05;22.80;;;16.40;;
16845;SDS011;8539;53.188;8.696;2022-09-09T02:34:35;18.77;;;13.25;;
16845;SDS011;8539;53.188;8.696;2022-09-09T02:37:06;25.27;;;14.70;;
16845;SDS011;8539;53.188;8.696;2022-09-09T02:39:35;30.25;;;14.88;;
16845;SDS011;8539;53.188;8.696;2022-09-09T02:42:01;19.98;;;12.73;;
16845;SDS011;8539;53.188;8.696;2022-09-09T02:44:29;28.65;;;13.95;;
16845;SDS011;8539;53.188;8.696;2022-09-09T02:52:31;21.58;;;16.17;;
16845;SDS011;8539;53.188;8.696;2022-09-09T02:55:09;26.30;;;15.43;;
16845;SDS011;8539;53.188;8.696;2022-09-09T02:57:44;24.88;;;15.15;;
16845;SDS011;8539;53.188;8.696;2022-09-09T03:00:13;22.88;;;15.45;;
16845;SDS011;8539;53.188;8.696;2022-09-09T03:02:40;22.75;;;15.02;;
16845;SDS011;8539;53.188;8.696;2022-09-09T03:05:07;19.60;;;14.52;;
16845;SDS011;8539;53.188;8.696;2022-09-09T03:07:33;22.83;;;15.30;;
16845;SDS011;8539;53.188;8.696;2022-09-09T03:10:00;17.63;;;12.90;;
16845;SDS011;8539;53.188;8.696;2022-09-09T03:12:26;29.08;;;13.73;;
16845;SDS011;8539;53.188;8.696;2022-09-09T03:14:52;20.58;;;15.18;;
16845;SDS011;8539;53.188;8.696;2022-09-09T03:17:18;20.30;;;14.65;;
16845;SDS011;8539;53.188;8.696;2022-09-09T03:19:44;21.33;;;14.98;;
16845;SDS011;8539;53.188;8.696;2022-09-09T03:22:10;19.90;;;14.45;;
16845;SDS011;8539;53.188;8.696;2022-09-09T03:24:37;21.60;;;14.05;;
16845;SDS011;8539;53.188;8.696;2022-09-09T03:27:03;23.38;;;14.68;;
16845;SDS011;8539;53.188;8.696;2022-09-09T03:29:29;25.17;;;16.90;;
16845;SDS011;8539;53.188;8.696;2022-09-09T03:31:55;21.63;;;13.38;;
16845;SDS011;8539;53.188;8.696;2022-09-09T03:34:21;19.30;;;16.00;;
16845;SDS011;8539;53.188;8.696;2022-09-09T03:36:47;18.05;;;13.25;;
16845;SDS011;8539;53.188;8.696;2022-09-09T03:39:14;21.65;;;14.68;;
16845;SDS011;8539;53.188;8.696;2022-09-09T03:41:40;23.88;;;15.27;;
16845;SDS011;8539;53.188;8.696;2022-09-09T03:44:06;15.07;;;12.48;;
16845;SDS011;8539;53.188;8.696;2022-09-09T03:46:32;20.83;;;14.60;;
16845;SDS011;8539;53.188;8.696;2022-09-09T03:48:59;22.40;;;14.55;;
16845;SDS011;8539;53.188;8.696;2022-09-09T03:51:25;24.88;;;15.30;;
16845;SDS011;8539;53.188;8.696;2022-09-09T03:53:51;18.02;;;14.15;;
16845;SDS011;8539;53.188;8.696;2022-09-09T03:56:20;19.13;;;14.88;;
16845;SDS011;8539;53.188;8.696;2022-09-09T03:58:47;22.02;;;14.80;;
16845;SDS011;8539;53.188;8.696;2022-09-09T04:01:13;22.27;;;13.95;;
16845;SDS011;8539;53.188;8.696;2022-09-09T04:03:39;35.90;;;16.60;;
16845;SDS011;8539;53.188;8.696;2022-09-09T04:06:06;21.23;;;13.98;;
16845;SDS011;8539;53.188;8.696;2022-09-09T04:08:34;22.73;;;15.25;;
16845;SDS011;8539;53.188;8.696;2022-09-09T04:11:01;19.05;;;14.48;;
16845;SDS011;8539;53.188;8.696;2022-09-09T04:13:35;24.48;;;13.77;;
16845;SDS011;8539;53.188;8.696;2022-09-09T04:16:05;16.10;;;11.98;;
16845;SDS011;8539;53.188;8.696;2022-09-09T04:18:32;20.83;;;13.70;;
16845;SDS011;8539;53.188;8.696;2022-09-09T04:20:59;19.95;;;12.30;;
16845;SDS011;8539;53.188;8.696;2022-09-09T04:23:27;20.08;;;13.15;;
16845;SDS011;8539;53.188;8.696;2022-09-09T04:25:56;19.90;;;12.82;;
16845;SDS011;8539;53.188;8.696;2022-09-09T04:28:25;21.80;;;14.40;;
16845;SDS011;8539;53.188;8.696;2022-09-09T04:30:52;21.52;;;14.15;;
16845;SDS011;8539;53.188;8.696;2022-09-09T04:33:18;20.42;;;12.77;;
16845;SDS011;8539;53.188;8.696;2022-09-09T04:35:45;20.27;;;14.57;;
16845;SDS011;8539;53.188;8.696;2022-09-09T04:38:13;15.10;;;12.57;;
16845;SDS011;8539;53.188;8.696;2022-09-09T04:40:41;20.52;;;12.60;;
16845;SDS011;8539;53.188;8.696;2022-09-09T04:43:14;18.80;;;12.43;;
16845;SDS011;8539;53.188;8.696;2022-09-09T04:45:41;15.70;;;10.93;;
16845;SDS011;8539;53.188;8.696;2022-09-09T04:48:08;15.07;;;12.10;;
16845;SDS011;8539;53.188;8.696;2022-09-09T04:50:35;21.83;;;12.40;;
16845;SDS011;8539;53.188;8.696;2022-09-09T04:53:02;13.60;;;10.80;;
16845;SDS011;8539;53.188;8.696;2022-09-09T04:55:30;14.20;;;10.95;;
16845;SDS011;8539;53.188;8.696;2022-09-09T04:58:02;14.15;;;10.82;;
16845;SDS011;8539;53.188;8.696;2022-09-09T05:00:33;11.75;;;10.50;;
16845;SDS011;8539;53.188;8.696;2022-09-09T05:03:05;14.30;;;10.82;;
16845;SDS011;8539;53.188;8.696;2022-09-09T05:05:34;15.27;;;10.15;;
16845;SDS011;8539;53.188;8.696;2022-09-09T05:08:02;17.25;;;10.02;;
16845;SDS011;8539;53.188;8.696;2022-09-09T05:10:28;15.98;;;9.75;;
16845;SDS011;8539;53.188;8.696;2022-09-09T05:12:55;14.75;;;10.50;;
16845;SDS011;8539;53.188;8.696;2022-09-09T05:15:21;14.38;;;9.40;;
16845;SDS011;8539;53.188;8.696;2022-09-09T05:17:47;11.63;;;9.85;;
16845;SDS011;8539;53.188;8.696;2022-09-09T05:20:13;11.55;;;9.23;;
16845;SDS011;8539;53.188;8.696;2022-09-09T05:22:39;16.65;;;10.48;;
16845;SDS011;8539;53.188;8.696;2022-09-09T05:25:18;13.25;;;10.55;;
16845;SDS011;8539;53.188;8.696;2022-09-09T05:27:45;13.35;;;9.85;;
16845;SDS011;8539;53.188;8.696;2022-09-09T05:30:11;13.07;;;9.63;;
16845;SDS011;8539;53.188;8.696;2022-09-09T05:32:37;13.05;;;9.82;;
16845;SDS011;8539;53.188;8.696;2022-09-09T05:35:03;13.85;;;9.93;;
16845;SDS011;8539;53.188;8.696;2022-09-09T05:37:30;11.85;;;10.20;;
16845;SDS011;8539;53.188;8.696;2022-09-09T05:39:57;14.65;;;9.93;;
16845;SDS011;8539;53.188;8.696;2022-09-09T05:42:23;14.05;;;9.65;;
16845;SDS011;8539;53.188;8.696;2022-09-09T05:44:49;12.25;;;9.52;;
16845;SDS011;8539;53.188;8.696;2022-09-09T05:47:16;13.80;;;8.68;;
16845;SDS011;8539;53.188;8.696;2022-09-09T05:49:42;14.57;;;8.43;;
16845;SDS011;8539;53.188;8.696;2022-09-09T05:52:08;12.60;;;8.65;;
16845;SDS011;8539;53.188;8.696;2022-09-09T05:54:35;12.82;;;8.63;;
16845;SDS011;8539;53.188;8.696;2022-09-09T05:57:02;11.50;;;8.32;;
16845;SDS011;8539;53.188;8.696;2022-09-09T05:59:29;12.20;;;7.82;;
16845;SDS011;8539;53.188;8.696;2022-09-09T06:01:56;14.02;;;9.38;;
16845;SDS011;8539;53.188;8.696;2022-09-09T06:04:25;10.45;;;7.82;;
16845;SDS011;8539;53.188;8.696;2022-09-09T06:06:51;15.75;;;8.23;;
16845;SDS011;8539;53.188;8.696;2022-09-09T06:09:17;16.63;;;8.40;;
16845;SDS011;8539;53.188;8.696;2022-09-09T06:11:43;16.55;;;8.85;;
16845;SDS011;8539;53.188;8.696;2022-09-09T06:14:11;12.45;;;7.88;;
16845;SDS011;8539;53.188;8.696;2022-09-09T06:16:37;14.63;;;9.05;;
16845;SDS011;8539;53.188;8.696;2022-09-09T06:19:03;12.95;;;8.63;;
16845;SDS011;8539;53.188;8.696;2022-09-09T06:21:30;10.52;;;8.68;;
16845;SDS011;8539;53.188;8.696;2022-09-09T06:24:04;17.83;;;9.60;;
16845;SDS011;8539;53.188;8.696;2022-09-09T06:26:31;19.00;;;10.35;;
16845;SDS011;8539;53.188;8.696;2022-09-09T06:28:59;14.55;;;9.10;;
16845;SDS011;8539;53.188;8.696;2022-09-09T06:31:28;15.65;;;8.63;;
16845;SDS011;8539;53.188;8.696;2022-09-09T06:33:59;12.65;;;8.07;;
16845;SDS011;8539;53.188;8.696;2022-09-09T06:36:27;10.30;;;8.75;;
16845;SDS011;8539;53.188;8.696;2022-09-09T06:38:54;14.13;;;9.82;;
16845;SDS011;8539;53.188;8.696;2022-09-09T06:41:21;12.27;;;9.15;;
16845;SDS011;8539;53.188;8.696;2022-09-09T06:43:49;11.82;;;9.40;;
16845;SDS011;8539;53.188;8.696;2022-09-09T06:46:16;8.60;;;7.38;;
16845;SDS011;8539;53.188;8.696;2022-09-09T06:48:47;14.82;;;7.50;;
16845;SDS011;8539;53.188;8.696;2022-09-09T06:51:15;8.82;;;7.43;;
16845;SDS011;8539;53.188;8.696;2022-09-09T06:53:44;10.45;;;7.53;;
16845;SDS011;8539;53.188;8.696;2022-09-09T06:56:22;9.75;;;6.38;;
16845;SDS011;8539;53.188;8.696;2022-09-09T06:58:49;9.30;;;6.47;;
16845;SDS011;8539;53.188;8.696;2022-09-09T07:01:18;11.35;;;7.07;;
16845;SDS011;8539;53.188;8.696;2022-09-09T07:03:46;10.20;;;6.80;;
16845;SDS011;8539;53.188;8.696;2022-09-09T07:06:39;6.35;;;5.10;;
16845;SDS011;8539;53.188;8.696;2022-09-09T07:09:05;11.30;;;5.47;;
16845;SDS011;8539;53.188;8.696;2022-09-09T07:11:38;11.00;;;4.10;;
16845;SDS011;8539;53.188;8.696;2022-09-09T07:14:08;5.78;;;4.07;;
16845;SDS011;8539;53.188;8.696;2022-09-09T07:16:37;4.72;;;3.70;;
16845;SDS011;8539;53.188;8.696;2022-09-09T07:19:04;6.47;;;4.22;;
16845;SDS011;8539;53.188;8.696;2022-09-09T07:21:30;5.95;;;4.82;;
16845;SDS011;8539;53.188;8.696;2022-09-09T07:23:57;8.70;;;4.85;;
16845;SDS011;8539;53.188;8.696;2022-09-09T07:26:25;5.32;;;3.80;;
16845;SDS011;8539;53.188;8.696;2022-09-09T07:28:54;3.90;;;3.33;;
16845;SDS011;8539;53.188;8.696;2022-09-09T07:31:31;8.18;;;3.28;;
16845;SDS011;8539;53.188;8.696;2022-09-09T07:34:00;7.25;;;3.05;;
16845;SDS011;8539;53.188;8.696;2022-09-09T07:36:27;5.88;;;3.72;;
16845;SDS011;8539;53.188;8.696;2022-09-09T07:38:56;6.57;;;3.03;;
16845;SDS011;8539;53.188;8.696;2022-09-09T07:41:37;5.63;;;3.05;;
16845;SDS011;8539;53.188;8.696;2022-09-09T07:44:10;4.97;;;3.53;;
16845;SDS011;8539;53.188;8.696;2022-09-09T07:46:37;5.68;;;2.75;;
16845;SDS011;8539;53.188;8.696;2022-09-09T07:49:07;4.95;;;2.97;;
16845;SDS011;8539;53.188;8.696;2022-09-09T07:51:35;7.97;;;3.65;;
16845;SDS011;8539;53.188;8.696;2022-09-09T07:54:05;10.13;;;3.90;;
16845;SDS011;8539;53.188;8.696;2022-09-09T07:56:33;11.10;;;5.63;;
16845;SDS011;8539;53.188;8.696;2022-09-09T07:58:59;9.88;;;5.22;;
16845;SDS011;8539;53.188;8.696;2022-09-09T08:01:31;12.02;;;4.53;;
16845;SDS011;8539;53.188;8.696;2022-09-09T08:04:00;7.30;;;4.20;;
16845;SDS011;8539;53.188;8.696;2022-09-09T08:06:29;5.57;;;4.45;;
16845;SDS011;8539;53.188;8.696;2022-09-09T08:09:00;8.18;;;3.92;;
16845;SDS011;8539;53.188;8.696;2022-09-09T08:11:27;10.35;;;4.97;;
16845;SDS011;8539;53.188;8.696;2022-09-09T08:13:55;10.07;;;5.30;;
16845;SDS011;8539;53.188;8.696;2022-09-09T08:16:25;11.35;;;5.00;;
16845;SDS011;8539;53.188;8.696;2022-09-09T08:18:53;13.63;;;4.93;;
16845;SDS011;8539;53.188;8.696;2022-09-09T08:21:22;8.05;;;3.97;;
16845;SDS011;8539;53.188;8.696;2022-09-09T08:23:50;7.35;;;4.40;;
16845;SDS011;8539;53.188;8.696;2022-09-09T08:26:18;10.30;;;4.65;;
16845;SDS011;8539;53.188;8.696;2022-09-09T08:28:56;11.50;;;4.72;;
16845;SDS011;8539;53.188;8.696;2022-09-09T08:31:25;10.02;;;5.85;;
16845;SDS011;8539;53.188;8.696;2022-09-09T08:33:59;7.65;;;4.78;;
16845;SDS011;8539;53.188;8.696;2022-09-09T08:36:29;8.82;;;4.88;;
16845;SDS011;8539;53.188;8.696;2022-09-09T08:38:59;9.20;;;4.72;;
16845;SDS011;8539;53.188;8.696;2022-09-09T08:46:57;7.13;;;5.25;;
16845;SDS011;8539;53.188;8.696;2022-09-09T08:52:22;7.28;;;4.80;;
16845;SDS011;8539;53.188;8.696;2022-09-09T08:57:52;8.40;;;5.97;;
16845;SDS011;8539;53.188;8.696;2022-09-09T09:00:21;7.00;;;4.97;;
16845;SDS011;8539;53.188;8.696;2022-09-09T09:08:43;6.15;;;3.90;;
16845;SDS011;8539;53.188;8.696;2022-09-09T09:11:16;6.63;;;4.47;;
16845;SDS011;8539;53.188;8.696;2022-09-09T09:13:44;5.30;;;3.60;;
16845;SDS011;8539;53.188;8.696;2022-09-09T09:19:00;5.65;;;3.20;;
16845;SDS011;8539;53.188;8.696;2022-09-09T09:24:01;8.38;;;3.45;;
16845;SDS011;8539;53.188;8.696;2022-09-09T09:26:37;8.02;;;3.85;;
16845;SDS011;8539;53.188;8.696;2022-09-09T09:29:10;5.13;;;3.05;;
16845;SDS011;8539;53.188;8.696;2022-09-09T09:31:38;9.27;;;3.38;;
16845;SDS011;8539;53.188;8.696;2022-09-09T09:34:07;9.35;;;3.13;;
16845;SDS011;8539;53.188;8.696;2022-09-09T09:36:43;5.85;;;3.22;;
16845;SDS011;8539;53.188;8.696;2022-09-09T09:39:29;3.38;;;2.92;;
16845;SDS011;8539;53.188;8.696;2022-09-09T09:42:35;7.75;;;3.30;;
16845;SDS011;8539;53.188;8.696;2022-09-09T09:44:54;3.92;;;2.42;;
16845;SDS011;8539;53.188;8.696;2022-09-09T09:47:21;5.70;;;2.50;;
16845;SDS011;8539;53.188;8.696;2022-09-09T09:49:55;5.43;;;2.10;;
16845;SDS011;8539;53.188;8.696;2022-09-09T09:52:25;5.20;;;2.15;;
16845;SDS011;8539;53.188;8.696;2022-09-09T09:54:54;3.72;;;1.80;;
16845;SDS011;8539;53.188;8.696;2022-09-09T09:57:24;2.63;;;1.65;;
16845;SDS011;8539;53.188;8.696;2022-09-09T10:02:48;2.63;;;1.23;;
16845;SDS011;8539;53.188;8.696;2022-09-09T10:05:18;3.42;;;1.67;;
16845;SDS011;8539;53.188;8.696;2022-09-09T10:07:47;6.78;;;1.95;;
16845;SDS011;8539;53.188;8.696;2022-09-09T10:17:02;6.80;;;2.17;;
16845;SDS011;8539;53.188;8.696;2022-09-09T10:19:37;3.45;;;1.42;;
16845;SDS011;8539;53.188;8.696;2022-09-09T10:35:58;7.63;;;1.77;;
16845;SDS011;8539;53.188;8.696;2022-09-09T10:38:59;3.92;;;1.60;;
16845;SDS011;8539;53.188;8.696;2022-09-09T10:41:45;4.22;;;1.80;;
16845;SDS011;8539;53.188;8.696;2022-09-09T10:50:09;6.75;;;2.40;;
16845;SDS011;8539;53.188;8.696;2022-09-09T10:55:41;7.47;;;2.53;;
16845;SDS011;8539;53.188;8.696;2022-09-09T10:58:15;2.53;;;1.63;;
16845;SDS011;8539;53.188;8.696;2022-09-09T11:00:49;9.43;;;2.30;;
16845;SDS011;8539;53.188;8.696;2022-09-09T11:03:24;5.35;;;2.30;;
16845;SDS011;8539;53.188;8.696;2022-09-09T11:05:56;5.22;;;2.47;;
16845;SDS011;8539;53.188;8.696;2022-09-09T11:08:24;10.05;;;2.80;;
16845;SDS011;8539;53.188;8.696;2022-09-09T11:11:10;5.97;;;2.97;;
16845;SDS011;8539;53.188;8.696;2022-09-09T11:16:40;3.75;;;2.90;;
16845;SDS011;8539;53.188;8.696;2022-09-09T11:19:30;7.97;;;2.80;;
16845;SDS011;8539;53.188;8.696;2022-09-09T11:24:42;8.90;;;2.78;;
16845;SDS011;8539;53.188;8.696;2022-09-09T11:28:04;4.10;;;1.85;;
16845;SDS011;8539;53.188;8.696;2022-09-09T11:33:51;2.22;;;1.70;;
16845;SDS011;8539;53.188;8.696;2022-09-09T11:37:15;4.68;;;2.00;;
16845;SDS011;8539;53.188;8.696;2022-09-09T11:39:37;6.95;;;1.90;;
16845;SDS011;8539;53.188;8.696;2022-09-09T11:42:26;7.03;;;1.85;;
16845;SDS011;8539;53.188;8.696;2022-09-09T11:44:51;7.82;;;1.92;;
16845;SDS011;8539;53.188;8.696;2022-09-09T11:47:28;4.40;;;1.90;;
16845;SDS011;8539;53.188;8.696;2022-09-09T11:52:41;8.00;;;3.47;;
16845;SDS011;8539;53.188;8.696;2022-09-09T11:57:38;8.88;;;3.40;;
16845;SDS011;8539;53.188;8.696;2022-09-09T12:00:05;8.25;;;2.95;;
16845;SDS011;8539;53.188;8.696;2022-09-09T12:02:32;5.60;;;2.33;;
16845;SDS011;8539;53.188;8.696;2022-09-09T12:07:38;5.28;;;1.95;;
16845;SDS011;8539;53.188;8.696;2022-09-09T12:12:46;4.78;;;2.35;;
16845;SDS011;8539;53.188;8.696;2022-09-09T12:15:17;6.03;;;2.70;;
16845;SDS011;8539;53.188;8.696;2022-09-09T12:20:19;7.80;;;3.17;;
16845;SDS011;8539;53.188;8.696;2022-09-09T12:28:19;8.93;;;3.35;;
16845;SDS011;8539;53.188;8.696;2022-09-09T12:30:51;6.47;;;3.28;;
16845;SDS011;8539;53.188;8.696;2022-09-09T12:33:34;8.75;;;2.85;;
16845;SDS011;8539;53.188;8.696;2022-09-09T12:36:05;10.40;;;2.85;;
16845;SDS011;8539;53.188;8.696;2022-09-09T12:38:41;8.57;;;2.47;;
16845;SDS011;8539;53.188;8.696;2022-09-09T12:41:21;6.03;;;2.10;;
16845;SDS011;8539;53.188;8.696;2022-09-09T12:43:50;6.57;;;1.83;;
16845;SDS011;8539;53.188;8.696;2022-09-09T12:46:21;6.25;;;1.50;;
16845;SDS011;8539;53.188;8.696;2022-09-09T12:49:29;6.97;;;1.75;;
16845;SDS011;8539;53.188;8.696;2022-09-09T12:52:04;4.72;;;1.50;;
16845;SDS011;8539;53.188;8.696;2022-09-09T12:54:35;2.63;;;1.65;;
16845;SDS011;8539;53.188;8.696;2022-09-09T12:57:03;8.13;;;1.80;;
16845;SDS011;8539;53.188;8.696;2022-09-09T12:59:38;9.02;;;2.17;;
16845;SDS011;8539;53.188;8.696;2022-09-09T13:02:11;4.38;;;1.92;;
16845;SDS011;8539;53.188;8.696;2022-09-09T13:04:50;7.88;;;2.88;;
16845;SDS011;8539;53.188;8.696;2022-09-09T13:07:18;5.55;;;2.40;;
16845;SDS011;8539;53.188;8.696;2022-09-09T13:09:46;6.63;;;2.30;;
16845;SDS011;8539;53.188;8.696;2022-09-09T13:12:18;5.90;;;2.85;;
16845;SDS011;8539;53.188;8.696;2022-09-09T13:14:47;12.52;;;3.85;;
16845;SDS011;8539;53.188;8.696;2022-09-09T13:17:26;11.25;;;3.35;;
16845;SDS011;8539;53.188;8.696;2022-09-09T13:19:56;8.13;;;3.33;;
16845;SDS011;8539;53.188;8.696;2022-09-09T13:25:03;8.13;;;3.20;;
16845;SDS011;8539;53.188;8.696;2022-09-09T13:27:57;5.00;;;3.83;;
16845;SDS011;8539;53.188;8.696;2022-09-09T13:33:05;10.82;;;4.38;;
16845;SDS011;8539;53.188;8.696;2022-09-09T13:35:35;10.45;;;3.60;;
16845;SDS011;8539;53.188;8.696;2022-09-09T13:38:15;4.72;;;3.90;;
16845;SDS011;8539;53.188;8.696;2022-09-09T13:40:55;5.25;;;3.33;;
16845;SDS011;8539;53.188;8.696;2022-09-09T13:43:31;13.27;;;4.40;;
16845;SDS011;8539;53.188;8.696;2022-09-09T13:46:01;7.18;;;4.65;;
16845;SDS011;8539;53.188;8.696;2022-09-09T13:48:29;18.55;;;4.55;;
16845;SDS011;8539;53.188;8.696;2022-09-09T13:50:58;6.03;;;4.43;;
16845;SDS011;8539;53.188;8.696;2022-09-09T13:53:27;5.70;;;4.20;;
16845;SDS011;8539;53.188;8.696;2022-09-09T13:55:55;6.30;;;4.53;;
16845;SDS011;8539;53.188;8.696;2022-09-09T13:58:22;8.43;;;4.53;;
16845;SDS011;8539;53.188;8.696;2022-09-09T14:00:51;7.38;;;4.82;;
16845;SDS011;8539;53.188;8.696;2022-09-09T14:03:18;8.35;;;4.68;;
16845;SDS011;8539;53.188;8.696;2022-09-09T14:05:45;8.40;;;5.57;;
16845;SDS011;8539;53.188;8.696;2022-09-09T14:08:18;13.07;;;5.90;;
16845;SDS011;8539;53.188;8.696;2022-09-09T14:10:48;9.13;;;5.72;;
16845;SDS011;8539;53.188;8.696;2022-09-09T14:13:14;8.23;;;6.03;;
16845;SDS011;8539;53.188;8.696;2022-09-09T14:15:41;6.38;;;5.40;;
16845;SDS011;8539;53.188;8.696;2022-09-09T14:18:09;13.05;;;6.55;;
16845;SDS011;8539;53.188;8.696;2022-09-09T14:20:37;11.32;;;5.20;;
16845;SDS011;8539;53.188;8.696;2022-09-09T14:23:03;14.77;;;6.80;;
16845;SDS011;8539;53.188;8.696;2022-09-09T14:25:29;11.63;;;6.13;;
16845;SDS011;8539;53.188;8.696;2022-09-09T14:27:55;10.70;;;6.50;;
16845;SDS011;8539;53.188;8.696;2022-09-09T14:30:22;12.93;;;6.28;;
16845;SDS011;8539;53.188;8.696;2022-09-09T14:32:48;14.85;;;6.85;;
16845;SDS011;8539;53.188;8.696;2022-09-09T14:35:14;12.80;;;6.38;;
16845;SDS011;8539;53.188;8.696;2022-09-09T14:37:42;14.10;;;7.85;;
16845;SDS011;8539;53.188;8.696;2022-09-09T14:40:08;10.68;;;8.02;;
16845;SDS011;8539;53.188;8.696;2022-09-09T14:42:35;14.35;;;7.93;;
16845;SDS011;8539;53.188;8.696;2022-09-09T14:45:02;18.10;;;9.13;;
16845;SDS011;8539;53.188;8.696;2022-09-09T14:47:28;14.18;;;8.68;;
16845;SDS011;8539;53.188;8.696;2022-09-09T14:49:55;14.75;;;8.18;;
16845;SDS011;8539;53.188;8.696;2022-09-09T14:52:21;11.40;;;7.40;;
16845;SDS011;8539;53.188;8.696;2022-09-09T14:54:48;13.13;;;7.90;;
16845;SDS011;8539;53.188;8.696;2022-09-09T14:57:15;10.73;;;6.75;;
16845;SDS011;8539;53.188;8.696;2022-09-09T14:59:41;10.73;;;6.80;;
16845;SDS011;8539;53.188;8.696;2022-09-09T15:02:08;11.98;;;7.45;;
16845;SDS011;8539;53.188;8.696;2022-09-09T15:04:34;11.38;;;6.28;;
16845;SDS011;8539;53.188;8.696;2022-09-09T15:07:01;8.75;;;6.15;;
16845;SDS011;8539;53.188;8.696;2022-09-09T15:09:27;12.77;;;7.75;;
16845;SDS011;8539;53.188;8.696;2022-09-09T15:11:53;11.02;;;5.57;;
16845;SDS011;8539;53.188;8.696;2022-09-09T15:14:19;9.13;;;6.30;;
16845;SDS011;8539;53.188;8.696;2022-09-09T15:16:45;8.00;;;6.13;;
16845;SDS011;8539;53.188;8.696;2022-09-09T15:19:11;16.05;;;6.75;;
16845;SDS011;8539;53.188;8.696;2022-09-09T15:21:38;8.75;;;5.38;;
16845;SDS011;8539;53.188;8.696;2022-09-09T15:24:04;10.68;;;6.80;;
16845;SDS011;8539;53.188;8.696;2022-09-09T15:26:32;9.27;;;5.85;;
16845;SDS011;8539;53.188;8.696;2022-09-09T15:28:59;7.50;;;5.53;;
16845;SDS011;8539;53.188;8.696;2022-09-09T15:31:27;9.65;;;4.78;;
16845;SDS011;8539;53.188;8.696;2022-09-09T15:33:56;5.63;;;4.72;;
16845;SDS011;8539;53.188;8.696;2022-09-09T15:36:27;7.70;;;4.43;;
16845;SDS011;8539;53.188;8.696;2022-09-09T15:38:55;8.23;;;4.82;;
16845;SDS011;8539;53.188;8.696;2022-09-09T15:41:22;10.10;;;5.05;;
16845;SDS011;8539;53.188;8.696;2022-09-09T15:43:49;8.38;;;5.03;;
16845;SDS011;8539;53.188;8.696;2022-09-09T15:48:44;10.43;;;4.82;;
16845;SDS011;8539;53.188;8.696;2022-09-09T15:51:10;7.00;;;4.10;;
16845;SDS011;8539;53.188;8.696;2022-09-09T15:53:37;8.82;;;4.53;;
16845;SDS011;8539;53.188;8.696;2022-09-09T15:56:06;6.35;;;4.50;;
16845;SDS011;8539;53.188;8.696;2022-09-09T15:58:33;10.73;;;8.20;;
16845;SDS011;8539;53.188;8.696;2022-09-09T16:01:08;22.27;;;12.95;;
16845;SDS011;8539;53.188;8.696;2022-09-09T16:03:37;9.27;;;7.70;;
16845;SDS011;8539;53.188;8.696;2022-09-09T16:06:05;8.82;;;6.63;;
16845;SDS011;8539;53.188;8.696;2022-09-09T16:08:35;10.45;;;5.72;;
16845;SDS011;8539;53.188;8.696;2022-09-09T16:11:06;9.85;;;7.63;;
16845;SDS011;8539;53.188;8.696;2022-09-09T16:13:40;7.28;;;6.20;;
16845;SDS011;8539;53.188;8.696;2022-09-09T16:16:12;9.05;;;5.05;;
16845;SDS011;8539;53.188;8.696;2022-09-09T16:18:41;9.43;;;4.25;;
16845;SDS011;8539;53.188;8.696;2022-09-09T16:23:50;6.35;;;4.35;;
16845;SDS011;8539;53.188;8.696;2022-09-09T16:26:18;9.52;;;4.82;;
16845;SDS011;8539;53.188;8.696;2022-09-09T16:28:45;6.43;;;4.88;;
16845;SDS011;8539;53.188;8.696;2022-09-09T16:31:16;10.23;;;4.85;;
16845;SDS011;8539;53.188;8.696;2022-09-09T16:33:44;6.75;;;4.25;;
16845;SDS011;8539;53.188;8.696;2022-09-09T16:36:12;9.75;;;4.72;;
16845;SDS011;8539;53.188;8.696;2022-09-09T16:38:41;7.65;;;4.65;;
16845;SDS011;8539;53.188;8.696;2022-09-09T16:41:09;6.95;;;5.03;;
16845;SDS011;8539;53.188;8.696;2022-09-09T16:43:36;8.27;;;5.15;;
16845;SDS011;8539;53.188;8.696;2022-09-09T16:46:03;9.13;;;4.57;;
16845;SDS011;8539;53.188;8.696;2022-09-09T16:48:37;6.63;;;4.03;;
16845;SDS011;8539;53.188;8.696;2022-09-09T16:51:04;8.00;;;5.25;;
16845;SDS011;8539;53.188;8.696;2022-09-09T16:53:33;7.72;;;4.60;;
16845;SDS011;8539;53.188;8.696;2022-09-09T16:56:06;9.40;;;5.95;;
16845;SDS011;8539;53.188;8.696;2022-09-09T16:58:34;7.15;;;5.30;;
16845;SDS011;8539;53.188;8.696;2022-09-09T17:01:01;7.82;;;4.85;;
16845;SDS011;8539;53.188;8.696;2022-09-09T17:03:28;9.18;;;5.32;;
16845;SDS011;8539;53.188;8.696;2022-09-09T17:05:55;9.90;;;5.35;;
16845;SDS011;8539;53.188;8.696;2022-09-09T17:08:23;11.45;;;6.65;;
16845;SDS011;8539;53.188;8.696;2022-09-09T17:10:49;13.43;;;8.48;;
16845;SDS011;8539;53.188;8.696;2022-09-09T17:13:16;7.88;;;5.93;;
16845;SDS011;8539;53.188;8.696;2022-09-09T17:15:45;9.32;;;4.78;;
16845;SDS011;8539;53.188;8.696;2022-09-09T17:18:12;8.07;;;4.80;;
16845;SDS011;8539;53.188;8.696;2022-09-09T17:20:39;13.40;;;6.30;;
16845;SDS011;8539;53.188;8.696;2022-09-09T17:23:07;7.18;;;5.38;;
16845;SDS011;8539;53.188;8.696;2022-09-09T17:25:35;8.05;;;4.32;;
16845;SDS011;8539;53.188;8.696;2022-09-09T17:28:01;4.47;;;4.07;;
16845;SDS011;8539;53.188;8.696;2022-09-09T17:30:34;8.60;;;3.80;;
16845;SDS011;8539;53.188;8.696;2022-09-09T17:33:02;11.57;;;5.07;;
16845;SDS011;8539;53.188;8.696;2022-09-09T17:35:30;8.13;;;4.10;;